Time;durP1;ratioP1;P1;durP2;ratioP2;P2;SDS_P1;SDS_P2;PMS_P1;PMS_P2;Temp;Humidity;BMP_temperature;BMP_pressure;BME280_temperature;BME280_humidity;BME280_pressure;Samples;Min_cycle;Max_cycle;Signal;HPM_P1;HPM_P2
2021/08/19 00:00:54;;;;;;;1.40;1.15;;;17.00;99.90;;;;;;5021909;28;20022;-69
2021/08/19 00:03:19;;;;;;;0.95;0.90;;;17.00;99.90;;;;;;5023870;28;20475;-69
2021/08/19 00:05:45;;;;;;;0.77;0.77;;;17.00;99.90;;;;;;5022595;28;20482;-70
2021/08/19 00:08:10;;;;;;;1.90;0.82;;;17.00;99.90;;;;;;5021946;28;20065;-69
2021/08/19 00:10:36;;;;;;;0.85;0.85;;;17.00;99.90;;;;;;5022331;28;20470;-69
2021/08/19 00:13:02;;;;;;;1.23;0.80;;;17.00;99.90;;;;;;5023369;28;20044;-69
2021/08/19 00:15:28;;;;;;;1.33;0.80;;;17.00;99.90;;;;;;5033890;28;20422;-69
2021/08/19 00:17:54;;;;;;;0.82;0.80;;;17.00;99.90;;;;;;5033191;28;20060;-70
2021/08/19 00:20:20;;;;;;;1.48;0.70;;;17.00;99.90;;;;;;5033496;28;20038;-69
2021/08/19 00:22:46;;;;;;;2.17;1.10;;;17.00;99.90;;;;;;5030493;28;20037;-69
2021/08/19 00:25:11;;;;;;;1.30;0.80;;;17.00;99.90;;;;;;5021732;28;20041;-69
2021/08/19 00:27:37;;;;;;;1.52;0.90;;;16.90;99.90;;;;;;5020683;28;20105;-69
2021/08/19 00:30:04;;;;;;;2.65;0.80;;;16.90;99.90;;;;;;5021472;28;20087;-69
2021/08/19 00:32:29;;;;;;;0.60;0.60;;;16.90;99.90;;;;;;5022624;28;20109;-69
2021/08/19 00:34:55;;;;;;;0.93;0.93;;;16.80;99.90;;;;;;5019119;28;20523;-69
2021/08/19 00:37:20;;;;;;;2.65;0.93;;;16.80;99.90;;;;;;5022558;28;20021;-69
2021/08/19 00:39:46;;;;;;;1.20;1.10;;;16.80;99.90;;;;;;5020986;28;20549;-69
2021/08/19 00:42:16;;;;;;;1.15;1.02;;;16.80;99.90;;;;;;5020738;28;20033;-69
2021/08/19 00:44:46;;;;;;;0.90;0.90;;;16.70;99.90;;;;;;5021507;28;20032;-69
2021/08/19 00:47:12;;;;;;;1.20;0.98;;;16.70;99.90;;;;;;5020887;28;20147;-69
2021/08/19 00:49:42;;;;;;;1.30;1.20;;;16.70;99.90;;;;;;5021931;28;20072;-69
2021/08/19 00:52:10;;;;;;;0.97;0.97;;;16.70;99.90;;;;;;5021705;28;20033;-69
2021/08/19 00:54:37;;;;;;;0.95;0.85;;;16.70;99.90;;;;;;5020452;28;20394;-69
2021/08/19 00:57:05;;;;;;;1.50;1.02;;;16.70;99.90;;;;;;5021127;28;20100;-69
2021/08/19 00:59:38;;;;;;;1.90;0.80;;;16.70;99.90;;;;;;5022134;28;20109;-69
2021/08/19 01:02:05;;;;;;;1.48;1.10;;;16.60;99.90;;;;;;5020698;28;20092;-69
2021/08/19 01:04:32;;;;;;;1.02;0.93;;;16.60;99.90;;;;;;5020906;28;20028;-69
2021/08/19 01:07:02;;;;;;;0.93;0.93;;;16.70;99.90;;;;;;5022237;28;20021;-69
2021/08/19 01:09:28;;;;;;;1.73;1.17;;;16.70;99.90;;;;;;5021701;28;20387;-69
2021/08/19 01:11:54;;;;;;;1.13;0.80;;;16.70;99.90;;;;;;5019420;28;20499;-69
2021/08/19 01:14:20;;;;;;;0.75;0.75;;;16.70;99.90;;;;;;5021658;28;20032;-69
2021/08/19 01:16:46;;;;;;;1.65;0.70;;;16.70;99.90;;;;;;5020649;28;20030;-69
2021/08/19 01:19:17;;;;;;;1.05;0.52;;;16.70;99.90;;;;;;5021440;28;20025;-69
2021/08/19 01:21:43;;;;;;;0.68;0.68;;;16.70;99.90;;;;;;5020942;28;20042;-69
2021/08/19 01:24:09;;;;;;;1.25;0.98;;;16.70;99.90;;;;;;5020035;28;20406;-69
2021/08/19 01:26:36;;;;;;;1.50;1.08;;;16.70;99.90;;;;;;5022482;28;20029;-69
2021/08/19 01:29:04;;;;;;;4.35;1.25;;;16.70;99.90;;;;;;5019669;28;20057;-69
2021/08/19 01:31:31;;;;;;;1.83;0.93;;;16.70;99.90;;;;;;5020713;28;20467;-69
2021/08/19 01:33:56;;;;;;;0.80;0.80;;;16.80;99.90;;;;;;5020698;28;20083;-69
2021/08/19 01:36:22;;;;;;;1.67;0.90;;;16.80;99.90;;;;;;5021509;28;20462;-69
2021/08/19 01:38:50;;;;;;;1.38;1.00;;;16.80;99.90;;;;;;5020889;28;20017;-69
2021/08/19 01:41:16;;;;;;;0.90;0.70;;;16.80;99.90;;;;;;5019080;28;20058;-69
2021/08/19 01:43:42;;;;;;;0.70;0.70;;;16.70;99.90;;;;;;5021339;28;20074;-69
2021/08/19 01:46:13;;;;;;;0.98;0.88;;;16.70;99.90;;;;;;5019612;28;20100;-69
2021/08/19 01:48:45;;;;;;;0.80;0.80;;;16.80;99.90;;;;;;5022752;28;20022;-69
2021/08/19 01:51:14;;;;;;;3.03;1.10;;;16.80;99.90;;;;;;5020111;28;20086;-69
2021/08/19 01:53:44;;;;;;;0.80;0.80;;;16.70;99.90;;;;;;5021818;28;20025;-69
2021/08/19 01:56:11;;;;;;;1.13;0.90;;;16.80;99.90;;;;;;5021257;28;20052;-69
2021/08/19 01:58:37;;;;;;;1.00;0.90;;;16.80;99.90;;;;;;5019634;28;20471;-69
2021/08/19 02:01:03;;;;;;;1.25;0.85;;;16.70;99.90;;;;;;5020329;28;20026;-69
2021/08/19 02:03:30;;;;;;;0.90;0.90;;;16.70;99.90;;;;;;5021308;28;20468;-69
2021/08/19 02:05:55;;;;;;;0.70;0.65;;;16.70;99.90;;;;;;5018717;28;20029;-69
2021/08/19 02:08:21;;;;;;;1.42;1.33;;;16.70;99.90;;;;;;5021189;28;20041;-69
2021/08/19 02:10:46;;;;;;;1.95;0.73;;;16.70;99.90;;;;;;5019564;28;20022;-68
2021/08/19 02:13:14;;;;;;;1.10;0.80;;;16.70;99.90;;;;;;5019746;28;20034;-69
2021/08/19 02:15:40;;;;;;;1.05;0.90;;;16.70;99.90;;;;;;5021491;28;20030;-69
2021/08/19 02:18:06;;;;;;;0.82;0.82;;;16.80;99.90;;;;;;5019742;28;20178;-69
2021/08/19 02:20:31;;;;;;;1.90;0.80;;;16.70;99.90;;;;;;5019550;28;20463;-69
2021/08/19 02:22:59;;;;;;;1.00;0.90;;;16.70;99.90;;;;;;5020823;28;20036;-69
2021/08/19 02:25:26;;;;;;;1.55;0.90;;;16.70;99.90;;;;;;5020368;28;20054;-69
2021/08/19 02:27:51;;;;;;;1.25;0.80;;;16.70;99.90;;;;;;5019928;28;20056;-69
2021/08/19 02:30:17;;;;;;;1.35;0.70;;;16.60;99.90;;;;;;5018503;28;20022;-69
2021/08/19 02:32:43;;;;;;;0.70;0.70;;;16.60;99.90;;;;;;5020369;28;20030;-69
2021/08/19 02:35:08;;;;;;;0.88;0.88;;;16.60;99.90;;;;;;5019384;28;20022;-69
2021/08/19 02:37:34;;;;;;;1.13;1.02;;;16.60;99.90;;;;;;5021443;28;20025;-70
2021/08/19 02:40:00;;;;;;;1.58;0.70;;;16.70;99.90;;;;;;5018335;28;20400;-70
2021/08/19 02:42:25;;;;;;;0.90;0.90;;;16.70;99.90;;;;;;5020165;28;20029;-70
2021/08/19 02:44:51;;;;;;;1.20;1.05;;;16.60;99.90;;;;;;5015390;28;20029;-70
2021/08/19 02:47:17;;;;;;;0.70;0.70;;;16.60;99.90;;;;;;5011948;28;20387;-69
2021/08/19 02:49:42;;;;;;;1.77;0.80;;;16.60;99.90;;;;;;5011461;28;20468;-70
2021/08/19 02:52:08;;;;;;;2.17;0.90;;;16.60;99.90;;;;;;5012805;28;20038;-70
2021/08/19 02:54:34;;;;;;;1.45;0.95;;;16.60;99.90;;;;;;5015810;28;20026;-70
2021/08/19 02:56:59;;;;;;;0.70;0.70;;;16.60;99.90;;;;;;5014835;28;20160;-70
2021/08/19 02:59:25;;;;;;;0.70;0.70;;;16.60;99.90;;;;;;5019270;28;20026;-69
2021/08/19 03:01:50;;;;;;;0.95;0.95;;;16.60;99.90;;;;;;5033093;28;20060;-70
2021/08/19 03:04:16;;;;;;;1.00;1.00;;;16.60;99.90;;;;;;5034261;28;20026;-69
2021/08/19 03:06:42;;;;;;;2.15;0.82;;;16.60;99.90;;;;;;5034935;28;20065;-70
2021/08/19 03:09:07;;;;;;;1.23;1.00;;;16.60;99.90;;;;;;5030247;28;20025;-70
2021/08/19 03:11:33;;;;;;;0.80;0.80;;;16.60;99.90;;;;;;5015034;28;20030;-69
2021/08/19 03:13:59;;;;;;;1.42;0.95;;;16.60;99.90;;;;;;5014169;28;20037;-70
2021/08/19 03:16:24;;;;;;;0.98;0.90;;;16.60;99.90;;;;;;5014688;28;20384;-70
2021/08/19 03:18:50;;;;;;;1.58;1.05;;;16.70;99.90;;;;;;5014681;28;20487;-70
2021/08/19 03:21:19;;;;;;;1.33;0.95;;;16.60;99.90;;;;;;5014822;28;20030;-70
2021/08/19 03:23:46;;;;;;;1.00;1.00;;;16.60;99.90;;;;;;5014962;28;20038;-70
2021/08/19 03:26:11;;;;;;;1.70;1.10;;;16.60;99.90;;;;;;5014293;28;20022;-70
2021/08/19 03:28:38;;;;;;;1.20;1.10;;;16.60;99.90;;;;;;5014954;28;20471;-69
2021/08/19 03:31:04;;;;;;;1.20;1.10;;;16.60;99.90;;;;;;5013699;28;20038;-70
2021/08/19 03:33:30;;;;;;;1.33;1.20;;;16.60;99.90;;;;;;5014813;28;20076;-69
2021/08/19 03:35:56;;;;;;;1.00;1.00;;;16.60;99.90;;;;;;5014300;28;20025;-70
2021/08/19 03:38:22;;;;;;;1.77;1.40;;;16.60;99.90;;;;;;5014651;28;20030;-70
2021/08/19 03:40:47;;;;;;;2.30;1.05;;;16.60;99.90;;;;;;5013945;28;20858;-70
2021/08/19 03:43:13;;;;;;;1.13;1.10;;;16.60;99.90;;;;;;5013765;28;20037;-70
2021/08/19 03:45:39;;;;;;;1.33;1.00;;;16.60;99.90;;;;;;5014386;28;20034;-70
2021/08/19 03:48:05;;;;;;;1.15;1.05;;;16.60;99.90;;;;;;5013677;28;20129;-70
2021/08/19 03:50:30;;;;;;;1.63;1.13;;;16.60;99.90;;;;;;5014305;28;20022;-70
2021/08/19 03:52:56;;;;;;;1.58;1.15;;;16.60;99.90;;;;;;5013495;28;20476;-70
2021/08/19 03:55:22;;;;;;;1.33;1.20;;;16.60;99.90;;;;;;5014593;28;20032;-69
2021/08/19 03:57:47;;;;;;;1.05;1.05;;;16.60;99.90;;;;;;5013994;28;20117;-69
2021/08/19 04:00:14;;;;;;;2.38;1.00;;;16.50;99.90;;;;;;5014495;28;20061;-70
2021/08/19 04:02:40;;;;;;;1.20;0.98;;;16.60;99.90;;;;;;5013044;28;20029;-69
2021/08/19 04:05:06;;;;;;;1.17;1.10;;;16.60;99.90;;;;;;5012012;28;20790;-70
2021/08/19 04:07:32;;;;;;;1.33;1.23;;;16.60;99.90;;;;;;5014390;28;20033;-70
2021/08/19 04:09:58;;;;;;;1.52;1.00;;;16.60;99.90;;;;;;5023287;28;20034;-70
2021/08/19 04:12:23;;;;;;;1.13;1.02;;;16.50;99.90;;;;;;5033510;28;20041;-70
2021/08/19 04:14:49;;;;;;;1.52;1.20;;;16.60;99.90;;;;;;5033154;28;20079;-70
2021/08/19 04:17:15;;;;;;;9.18;2.20;;;16.60;99.90;;;;;;5033498;28;20025;-70
2021/08/19 04:19:40;;;;;;;1.98;1.55;;;16.60;99.90;;;;;;5033849;28;20052;-70
2021/08/19 04:22:06;;;;;;;1.65;1.02;;;16.60;99.90;;;;;;5032685;28;20403;-71
2021/08/19 04:24:32;;;;;;;1.67;1.05;;;16.60;99.90;;;;;;5033753;28;20025;-70
2021/08/19 04:26:58;;;;;;;1.35;1.25;;;16.60;99.90;;;;;;5032405;28;20036;-70
2021/08/19 04:29:23;;;;;;;1.17;1.08;;;16.60;99.90;;;;;;5032584;28;20025;-70
2021/08/19 04:31:49;;;;;;;1.23;1.10;;;16.60;99.90;;;;;;5032791;28;20083;-70
2021/08/19 04:34:15;;;;;;;1.88;1.50;;;16.60;99.90;;;;;;5033031;28;20482;-70
2021/08/19 04:36:41;;;;;;;1.20;1.10;;;16.60;99.90;;;;;;5033409;28;20499;-70
2021/08/19 04:39:06;;;;;;;1.70;1.58;;;16.50;99.90;;;;;;5032361;28;20061;-70
2021/08/19 04:41:32;;;;;;;1.70;1.30;;;16.60;99.90;;;;;;5033030;28;20029;-70
2021/08/19 04:43:57;;;;;;;2.05;1.40;;;16.60;99.90;;;;;;5032616;28;20433;-70
2021/08/19 04:46:23;;;;;;;1.60;1.50;;;16.60;99.90;;;;;;5033274;28;20029;-69
2021/08/19 04:48:50;;;;;;;1.55;1.33;;;16.60;99.90;;;;;;5032358;28;20030;-70
2021/08/19 04:51:17;;;;;;;3.13;1.45;;;16.60;99.90;;;;;;5032906;28;20040;-70
2021/08/19 04:53:43;;;;;;;1.55;1.45;;;16.60;99.90;;;;;;5033218;28;20074;-70
2021/08/19 04:56:08;;;;;;;1.52;1.42;;;16.60;99.90;;;;;;5032143;28;20025;-70
2021/08/19 04:58:34;;;;;;;2.70;1.88;;;16.60;99.90;;;;;;5032981;28;20363;-70
2021/08/19 05:01:00;;;;;;;1.60;1.50;;;16.60;99.90;;;;;;5031867;28;20399;-70
2021/08/19 05:03:25;;;;;;;1.10;1.00;;;16.60;99.90;;;;;;5032653;28;20455;-69
2021/08/19 05:05:51;;;;;;;1.50;1.40;;;16.60;99.90;;;;;;5032348;28;20541;-69
2021/08/19 05:08:17;;;;;;;3.28;1.10;;;16.60;99.90;;;;;;5032392;28;20104;-70
2021/08/19 05:10:42;;;;;;;1.67;1.10;;;16.60;99.90;;;;;;5016488;28;20490;-70
2021/08/19 05:13:08;;;;;;;1.70;1.30;;;16.70;99.90;;;;;;5012113;28;20821;-69
2021/08/19 05:15:33;;;;;;;1.77;1.00;;;16.70;99.90;;;;;;5012555;28;20026;-70
2021/08/19 05:17:59;;;;;;;1.35;1.25;;;16.70;99.90;;;;;;5011738;28;20083;-70
2021/08/19 05:20:25;;;;;;;1.10;1.10;;;16.70;99.90;;;;;;5013114;28;20037;-70
2021/08/19 05:22:50;;;;;;;1.52;1.30;;;16.80;99.90;;;;;;5012350;28;20026;-70
2021/08/19 05:25:16;;;;;;;1.60;1.00;;;16.80;99.90;;;;;;5012388;28;20088;-70
2021/08/19 05:27:42;;;;;;;1.02;0.90;;;16.90;99.90;;;;;;5012352;28;20068;-70
2021/08/19 05:30:09;;;;;;;3.70;1.30;;;16.90;99.90;;;;;;5012010;28;20030;-70
2021/08/19 05:32:35;;;;;;;2.65;1.30;;;17.00;99.90;;;;;;5012688;28;20117;-70
2021/08/19 05:35:02;;;;;;;1.25;1.00;;;17.00;99.90;;;;;;5011736;28;20112;-70
2021/08/19 05:37:28;;;;;;;1.42;1.25;;;17.00;99.90;;;;;;5012540;28;20029;-70
2021/08/19 05:39:54;;;;;;;2.60;1.30;;;17.00;99.90;;;;;;5011736;28;20054;-69
2021/08/19 05:42:20;;;;;;;2.40;1.27;;;17.00;99.90;;;;;;5012494;28;20045;-69
2021/08/19 05:44:45;;;;;;;2.33;1.15;;;17.00;99.90;;;;;;5012864;28;20037;-69
2021/08/19 05:47:11;;;;;;;1.30;1.00;;;17.00;99.90;;;;;;5011088;28;20116;-68
2021/08/19 05:49:45;;;;;;;2.90;1.27;;;17.00;99.90;;;;;;5012420;28;20026;-68
2021/08/19 05:52:12;;;;;;;2.28;1.25;;;17.00;99.90;;;;;;5011617;28;20786;-68
2021/08/19 05:54:38;;;;;;;1.75;1.00;;;17.10;99.90;;;;;;5012314;28;20518;-69
2021/08/19 05:57:04;;;;;;;3.08;1.80;;;17.10;99.90;;;;;;5009898;28;20042;-69
2021/08/19 05:59:30;;;;;;;1.23;1.13;;;17.10;99.90;;;;;;5012042;28;20080;-69
2021/08/19 06:01:56;;;;;;;1.95;1.20;;;17.20;99.90;;;;;;5011417;28;20065;-70
2021/08/19 06:04:21;;;;;;;1.10;1.00;;;17.20;99.90;;;;;;5012045;28;20068;-69
2021/08/19 06:06:47;;;;;;;1.55;1.20;;;17.20;99.90;;;;;;5012190;28;20030;-69
2021/08/19 06:09:14;;;;;;;2.33;1.02;;;17.30;99.90;;;;;;5014843;28;20632;-69
2021/08/19 06:11:40;;;;;;;1.38;1.27;;;17.40;99.90;;;;;;5032025;28;20037;-69
2021/08/19 06:14:06;;;;;;;3.13;1.27;;;17.40;99.90;;;;;;5031018;28;20126;-69
2021/08/19 06:16:31;;;;;;;1.33;1.23;;;17.50;99.90;;;;;;5030747;28;20064;-69
2021/08/19 06:18:59;;;;;;;1.17;1.08;;;17.50;99.90;;;;;;5031139;28;20060;-70
2021/08/19 06:21:25;;;;;;;1.05;0.95;;;17.50;99.90;;;;;;5031587;28;20032;-69
2021/08/19 06:23:51;;;;;;;1.52;1.10;;;17.60;99.90;;;;;;5022336;28;20113;-69
2021/08/19 06:26:16;;;;;;;2.67;1.17;;;17.70;99.90;;;;;;5021461;28;20026;-69
2021/08/19 06:28:42;;;;;;;1.60;1.17;;;17.80;99.90;;;;;;5024388;28;20068;-69
2021/08/19 06:31:08;;;;;;;2.90;1.17;;;17.80;99.90;;;;;;5022914;28;20030;-69
2021/08/19 06:33:33;;;;;;;1.95;1.10;;;17.80;99.90;;;;;;5025546;28;20485;-69
2021/08/19 06:35:59;;;;;;;1.83;1.48;;;17.80;99.90;;;;;;5023122;28;20026;-69
2021/08/19 06:38:25;;;;;;;3.83;1.45;;;17.90;99.90;;;;;;5023842;28;20113;-69
2021/08/19 06:40:50;;;;;;;2.65;1.30;;;17.90;99.90;;;;;;5025049;28;20049;-69
2021/08/19 06:43:16;;;;;;;1.95;1.25;;;18.00;99.90;;;;;;5022598;28;20034;-70
2021/08/19 06:45:42;;;;;;;2.20;1.10;;;18.10;99.90;;;;;;5024413;28;20048;-68
2021/08/19 06:48:08;;;;;;;1.42;1.33;;;18.30;99.90;;;;;;5023122;28;20108;-68
2021/08/19 06:50:33;;;;;;;2.33;0.95;;;18.40;99.90;;;;;;5023170;28;20029;-70
2021/08/19 06:52:59;;;;;;;5.32;1.45;;;18.50;99.90;;;;;;5023782;28;20021;-68
2021/08/19 06:55:27;;;;;;;2.20;1.20;;;18.50;99.90;;;;;;5024406;28;20032;-68
2021/08/19 06:57:53;;;;;;;1.45;1.00;;;18.50;99.90;;;;;;5022985;28;20040;-68
2021/08/19 07:00:19;;;;;;;2.97;1.35;;;18.60;99.90;;;;;;5023846;28;20729;-69
2021/08/19 07:02:44;;;;;;;3.13;1.38;;;18.70;99.90;;;;;;5024697;28;20032;-68
2021/08/19 07:05:10;;;;;;;1.38;1.23;;;18.80;99.90;;;;;;5021977;28;20044;-69
2021/08/19 07:07:36;;;;;;;0.95;0.80;;;18.90;99.90;;;;;;5025148;28;20104;-68
2021/08/19 07:10:09;;;;;;;1.40;1.10;;;19.00;99.90;;;;;;5023421;28;20096;-68
2021/08/19 07:12:36;;;;;;;1.83;1.10;;;19.10;99.90;;;;;;5025407;28;20076;-70
2021/08/19 07:15:03;;;;;;;1.73;0.88;;;19.20;99.90;;;;;;5025544;28;20356;-70
2021/08/19 07:17:28;;;;;;;1.90;1.13;;;19.30;99.90;;;;;;5022810;28;20499;-70
2021/08/19 07:19:54;;;;;;;0.88;0.77;;;19.40;99.90;;;;;;5025020;28;20056;-70
2021/08/19 07:22:20;;;;;;;1.13;0.98;;;19.50;99.90;;;;;;5023768;28;20038;-70
2021/08/19 07:24:46;;;;;;;1.27;1.00;;;19.50;99.90;;;;;;5021714;28;20425;-70
2021/08/19 07:27:11;;;;;;;1.65;0.82;;;19.50;99.90;;;;;;5025953;28;20033;-69
2021/08/19 07:29:37;;;;;;;0.90;0.90;;;19.70;99.90;;;;;;5024202;28;20057;-69
2021/08/19 07:32:03;;;;;;;1.85;1.15;;;19.70;99.90;;;;;;5023111;28;20067;-70
2021/08/19 07:34:29;;;;;;;0.80;0.80;;;19.60;99.90;;;;;;5024034;28;20121;-69
2021/08/19 07:36:55;;;;;;;1.15;1.05;;;19.60;99.90;;;;;;5022684;28;20104;-69
2021/08/19 07:39:21;;;;;;;1.40;0.95;;;19.70;99.90;;;;;;5023094;28;20520;-69
2021/08/19 07:41:47;;;;;;;2.17;1.30;;;19.80;99.90;;;;;;5024160;28;20122;-69
2021/08/19 07:44:13;;;;;;;1.95;0.98;;;19.70;99.90;;;;;;5021381;28;20161;-68
2021/08/19 07:46:38;;;;;;;1.02;1.00;;;19.80;99.90;;;;;;5024017;28;20094;-68
2021/08/19 07:49:04;;;;;;;1.10;1.00;;;19.90;99.90;;;;;;5022906;28;20029;-68
2021/08/19 07:51:31;;;;;;;1.10;1.00;;;19.90;99.80;;;;;;5022636;28;20775;-67
2021/08/19 07:53:58;;;;;;;2.05;1.00;;;20.00;99.40;;;;;;5023910;28;20022;-67
2021/08/19 07:56:24;;;;;;;1.80;1.05;;;20.00;99.60;;;;;;5022392;28;20029;-68
2021/08/19 07:58:50;;;;;;;1.13;1.00;;;20.00;99.10;;;;;;5023825;28;20033;-67
2021/08/19 08:01:15;;;;;;;0.80;0.80;;;20.00;98.90;;;;;;5023969;28;20243;-68
2021/08/19 08:03:41;;;;;;;1.42;1.15;;;20.10;98.70;;;;;;5022601;28;20034;-69
2021/08/19 08:06:07;;;;;;;1.27;0.95;;;20.00;98.70;;;;;;5022499;28;20026;-71
2021/08/19 08:08:33;;;;;;;1.20;1.10;;;20.00;98.70;;;;;;5021245;28;20014;-70
2021/08/19 08:10:58;;;;;;;8.60;1.77;;;20.10;98.10;;;;;;5027979;28;20430;-71
2021/08/19 08:13:24;;;;;;;1.90;0.98;;;20.10;98.10;;;;;;5034694;28;20041;-70
2021/08/19 08:15:50;;;;;;;2.97;1.00;;;20.30;98.20;;;;;;5033832;28;20071;-70
2021/08/19 08:18:17;;;;;;;1.63;1.20;;;20.30;98.00;;;;;;5032330;28;20310;-69
2021/08/19 08:20:44;;;;;;;1.30;1.10;;;20.50;97.90;;;;;;5025582;28;20064;-69
2021/08/19 08:23:11;;;;;;;1.60;1.08;;;20.60;97.00;;;;;;5023110;28;20083;-70
2021/08/19 08:25:37;;;;;;;2.05;1.00;;;20.80;96.20;;;;;;5023990;28;20475;-72
2021/08/19 08:28:05;;;;;;;0.85;0.85;;;20.90;95.90;;;;;;5023664;28;20053;-71
2021/08/19 08:30:35;;;;;;;1.15;0.90;;;20.90;95.70;;;;;;5021703;28;20034;-70
2021/08/19 08:33:02;;;;;;;1.98;1.10;;;20.90;96.00;;;;;;5023095;28;20026;-71
2021/08/19 08:35:30;;;;;;;1.77;1.05;;;21.00;95.90;;;;;;5022326;28;20056;-69
2021/08/19 08:37:56;;;;;;;3.03;0.95;;;21.20;95.30;;;;;;5022891;28;20046;-71
2021/08/19 08:40:24;;;;;;;2.97;1.42;;;21.40;95.00;;;;;;5020902;28;20479;-72
2021/08/19 08:42:50;;;;;;;1.67;1.13;;;21.60;94.20;;;;;;5022240;28;20464;-73
2021/08/19 08:45:17;;;;;;;1.67;1.00;;;21.70;94.00;;;;;;5023454;28;20087;-74
2021/08/19 08:47:45;;;;;;;4.15;1.50;;;21.80;93.10;;;;;;5020849;28;20083;-75
2021/08/19 08:50:11;;;;;;;3.13;1.00;;;21.80;93.00;;;;;;5020824;28;20040;-76
2021/08/19 08:52:38;;;;;;;4.05;1.38;;;21.70;93.10;;;;;;5020748;28;20041;-76
2021/08/19 08:55:05;;;;;;;2.05;1.08;;;21.70;92.70;;;;;;5020186;28;20029;-77
2021/08/19 08:57:34;;;;;;;1.35;1.25;;;21.80;92.50;;;;;;5023848;28;20022;-77
2021/08/19 09:00:01;;;;;;;0.85;0.85;;;21.80;92.50;;;;;;5031708;28;20478;-76
2021/08/19 09:02:26;;;;;;;0.98;0.88;;;21.80;92.30;;;;;;5032736;28;20033;-77
2021/08/19 09:05:17;;;;;;;2.13;1.67;;;21.80;92.00;;;;;;5033048;28;20033;-74
2021/08/19 09:07:44;;;;;;;2.72;1.10;;;21.90;92.30;;;;;;5032770;28;20056;-81
2021/08/19 09:10:13;;;;;;;0.70;0.70;;;22.00;91.40;;;;;;5019820;28;20038;-70
2021/08/19 09:12:40;;;;;;;3.03;0.90;;;22.00;91.60;;;;;;5012991;28;20067;-70
2021/08/19 09:15:15;;;;;;;2.60;1.20;;;22.00;91.60;;;;;;5010290;28;20087;-73
2021/08/19 09:17:49;;;;;;;3.15;1.10;;;21.90;91.70;;;;;;5013168;28;20030;-74
2021/08/19 09:20:15;;;;;;;2.33;1.13;;;21.70;92.00;;;;;;5018907;28;20033;-74
2021/08/19 09:23:15;;;;;;;3.42;1.20;;;21.60;92.30;;;;;;5032288;28;20035;-74
2021/08/19 09:25:46;;;;;;;5.47;1.30;;;21.50;92.80;;;;;;5020352;28;20068;-74
2021/08/19 09:28:24;;;;;;;2.00;0.90;;;21.40;93.00;;;;;;5031611;28;20135;-75
2021/08/19 09:31:03;;;;;;;2.42;1.00;;;21.30;93.20;;;;;;5032259;28;20103;-74
2021/08/19 09:33:31;;;;;;;2.28;1.60;;;21.50;92.60;;;;;;5032292;28;20483;-74
2021/08/19 09:35:59;;;;;;;1.42;1.08;;;21.50;92.60;;;;;;5032289;28;20108;-74
2021/08/19 09:38:34;;;;;;;1.52;1.17;;;21.60;92.50;;;;;;5031702;28;20499;-75
2021/08/19 09:41:20;;;;;;;1.15;1.00;;;21.90;91.90;;;;;;5031962;28;20495;-74
2021/08/19 09:43:48;;;;;;;1.63;1.50;;;22.40;90.90;;;;;;5032123;28;20117;-75
2021/08/19 09:46:32;;;;;;;1.08;0.98;;;22.80;90.40;;;;;;5031261;28;20029;-75
2021/08/19 09:49:00;;;;;;;1.02;0.82;;;23.00;87.50;;;;;;5032190;28;20048;-74
2021/08/19 09:51:28;;;;;;;1.33;0.82;;;23.10;86.30;;;;;;5031626;28;20021;-74
2021/08/19 09:53:57;;;;;;;1.10;0.95;;;23.20;85.70;;;;;;5031837;28;20153;-74
2021/08/19 09:56:36;;;;;;;1.88;1.10;;;23.30;84.40;;;;;;5031129;28;20036;-74
2021/08/19 09:59:22;;;;;;;2.60;1.10;;;23.30;82.30;;;;;;5031674;28;20025;-74
2021/08/19 10:01:53;;;;;;;2.63;1.00;;;23.30;81.40;;;;;;5030870;28;20040;-74
2021/08/19 10:04:20;;;;;;;2.58;0.70;;;23.50;79.90;;;;;;5031039;28;20025;-75
2021/08/19 10:06:47;;;;;;;1.02;0.68;;;23.70;78.80;;;;;;5031862;28;20033;-74
2021/08/19 10:09:13;;;;;;;0.88;0.60;;;23.80;77.30;;;;;;5026888;28;20037;-74
2021/08/19 10:11:45;;;;;;;0.80;0.80;;;24.00;76.10;;;;;;5012101;28;20030;-74
2021/08/19 10:14:19;;;;;;;2.20;1.15;;;24.00;74.70;;;;;;5011514;28;20026;-76
2021/08/19 10:16:46;;;;;;;1.02;0.70;;;24.10;73.60;;;;;;5012290;28;20115;-76
2021/08/19 10:19:33;;;;;;;1.50;0.55;;;24.20;73.00;;;;;;5010468;28;20448;-76
2021/08/19 10:22:20;;;;;;;0.88;0.60;;;24.20;71.60;;;;;;5012749;28;20113;-76
2021/08/19 10:24:51;;;;;;;1.15;0.80;;;24.20;72.00;;;;;;5012169;28;20038;-75
2021/08/19 10:27:22;;;;;;;1.33;0.98;;;24.30;72.20;;;;;;5011382;28;20164;-76
2021/08/19 10:29:53;;;;;;;1.15;0.80;;;24.30;71.20;;;;;;5012292;28;20037;-76
2021/08/19 10:32:33;;;;;;;2.15;1.10;;;24.50;70.70;;;;;;5011227;28;20048;-76
2021/08/19 10:35:09;;;;;;;1.75;1.00;;;24.60;70.30;;;;;;5012407;28;20054;-76
2021/08/19 10:37:47;;;;;;;1.13;1.00;;;24.60;69.10;;;;;;5012232;28;20026;-78
2021/08/19 10:40:21;;;;;;;1.27;1.05;;;24.50;69.40;;;;;;5010795;28;20131;-76
2021/08/19 10:42:57;;;;;;;1.30;1.20;;;24.50;69.30;;;;;;5012371;28;20025;-77
2021/08/19 10:45:28;;;;;;;1.35;0.90;;;24.40;69.50;;;;;;5011938;28;20037;-76
2021/08/19 10:48:09;;;;;;;0.88;0.80;;;24.20;69.30;;;;;;5012402;28;20057;-90
2021/08/19 10:50:40;;;;;;;1.33;1.08;;;24.20;69.40;;;;;;5021074;28;20021;-79
2021/08/19 10:53:28;;;;;;;0.98;0.82;;;24.10;69.50;;;;;;5031393;28;20358;-79
2021/08/19 10:55:56;;;;;;;1.75;1.33;;;24.00;69.50;;;;;;5032053;28;20030;-79
2021/08/19 10:58:23;;;;;;;0.82;0.70;;;24.00;69.50;;;;;;5033055;28;20026;-78
2021/08/19 11:00:48;;;;;;;1.08;0.98;;;23.90;68.90;;;;;;5031921;28;20030;-79
2021/08/19 11:03:41;;;;;;;1.05;0.80;;;23.90;69.80;;;;;;5031206;28;20041;-78
2021/08/19 11:06:14;;;;;;;1.20;1.10;;;23.80;70.30;;;;;;5030314;28;20041;-78
2021/08/19 11:08:41;;;;;;;0.70;0.70;;;23.80;70.90;;;;;;5032306;28;20026;-76
2021/08/19 11:11:08;;;;;;;1.40;1.17;;;23.80;70.40;;;;;;5012493;28;20026;-77
2021/08/19 11:13:35;;;;;;;2.58;1.00;;;23.80;70.40;;;;;;5015223;28;20037;-77
2021/08/19 11:16:05;;;;;;;1.40;0.90;;;23.80;71.50;;;;;;5018139;28;20040;-77
2021/08/19 11:18:33;;;;;;;1.17;0.88;;;23.70;70.20;;;;;;5019405;28;20375;-78
2021/08/19 11:21:00;;;;;;;0.98;0.90;;;23.60;70.90;;;;;;5038514;28;20018;-77
2021/08/19 11:23:38;;;;;;;1.40;0.88;;;23.40;71.10;;;;;;5041957;28;20033;-78
2021/08/19 11:26:09;;;;;;;1.70;1.10;;;23.20;72.10;;;;;;5034483;28;20487;-76
2021/08/19 11:28:43;;;;;;;1.02;0.88;;;23.00;72.80;;;;;;5035089;28;20048;-75
2021/08/19 11:31:11;;;;;;;1.17;0.95;;;22.90;72.70;;;;;;5034788;28;20017;-75
2021/08/19 11:33:39;;;;;;;1.00;0.90;;;22.70;74.40;;;;;;5034988;28;20055;-76
2021/08/19 11:36:05;;;;;;;1.20;1.05;;;22.50;74.30;;;;;;5034554;28;20096;-76
2021/08/19 11:38:31;;;;;;;1.20;0.88;;;22.40;75.10;;;;;;5034969;28;20095;-76
2021/08/19 11:40:58;;;;;;;1.75;0.95;;;22.30;75.60;;;;;;5035030;28;20081;-75
2021/08/19 11:43:29;;;;;;;1.70;1.05;;;22.30;75.80;;;;;;5033734;28;20120;-76
2021/08/19 11:46:05;;;;;;;2.78;0.90;;;22.30;77.40;;;;;;5034547;28;20160;-77
2021/08/19 11:48:32;;;;;;;2.00;1.15;;;22.10;77.40;;;;;;5034505;28;20104;-76
2021/08/19 11:51:00;;;;;;;1.75;1.02;;;22.10;77.70;;;;;;5032900;28;20037;-77
2021/08/19 11:53:26;;;;;;;2.33;0.93;;;22.10;78.00;;;;;;5033548;28;20112;-77
2021/08/19 11:55:53;;;;;;;0.93;0.85;;;22.10;77.70;;;;;;5034473;28;20414;-77
2021/08/19 11:58:26;;;;;;;1.33;1.23;;;22.20;77.20;;;;;;5032197;28;20030;-77
2021/08/19 12:01:05;;;;;;;1.17;1.17;;;22.30;77.90;;;;;;5033999;28;20530;-78
2021/08/19 12:03:36;;;;;;;0.88;0.88;;;22.40;76.90;;;;;;5034029;28;20116;-76
2021/08/19 12:06:01;;;;;;;1.80;1.00;;;22.50;75.80;;;;;;5034072;28;20025;-77
2021/08/19 12:08:27;;;;;;;1.92;1.23;;;22.60;76.90;;;;;;5033349;28;20486;-77
2021/08/19 12:10:55;;;;;;;1.65;1.20;;;22.90;75.90;;;;;;5033654;28;20026;-78
2021/08/19 12:13:22;;;;;;;3.42;1.20;;;23.20;76.00;;;;;;5032587;28;20037;-77
2021/08/19 12:15:49;;;;;;;1.23;1.13;;;23.50;75.40;;;;;;5033632;28;20029;-76
2021/08/19 12:18:23;;;;;;;2.65;1.25;;;23.80;73.40;;;;;;5031721;28;20037;-78
2021/08/19 12:20:51;;;;;;;1.40;1.08;;;24.10;72.90;;;;;;5033362;28;20038;-77
2021/08/19 12:23:22;;;;;;;2.60;0.90;;;24.40;74.30;;;;;;5031367;28;20160;-78
2021/08/19 12:25:48;;;;;;;1.33;1.23;;;24.80;72.30;;;;;;5033134;28;20034;-76
2021/08/19 12:28:16;;;;;;;1.40;1.30;;;24.90;71.00;;;;;;5030870;28;20033;-74
2021/08/19 12:30:57;;;;;;;4.38;1.20;;;24.80;70.50;;;;;;5034468;28;20032;-76
2021/08/19 12:33:34;;;;;;;2.70;1.40;;;24.60;70.30;;;;;;5032704;28;20375;-75
2021/08/19 12:36:17;;;;;;;1.40;1.08;;;24.40;71.20;;;;;;5033452;28;20410;-75
2021/08/19 12:38:45;;;;;;;1.15;1.05;;;24.40;73.80;;;;;;5033451;28;20478;-76
2021/08/19 12:41:12;;;;;;;3.35;1.20;;;24.30;72.50;;;;;;5032344;28;20057;-74
2021/08/19 12:43:39;;;;;;;1.58;1.20;;;24.30;73.50;;;;;;5032832;28;20051;-76
2021/08/19 12:46:07;;;;;;;1.17;0.90;;;24.30;72.60;;;;;;5033416;28;20041;-74
2021/08/19 12:48:34;;;;;;;4.53;1.35;;;24.20;73.20;;;;;;5033188;28;20034;-74
2021/08/19 12:51:26;;;;;;;1.63;1.10;;;24.10;72.80;;;;;;5033427;28;20116;-74